Whittemore, MI (48770)

12:30 PM EDT on June 03, 2015 (GMT -0400)
MesoWest | | Change Station
CLOSE
Current Station
Personal Weather Station
Location: Glennie, MI
Elevation: 830 ft
Nearby Weather Stations

Elev 830 ft 44.45 °N, 83.69 °W | Updated 35 minutes ago

Clear
Clear
68 °F
Feels Like 68 °F
N
9
Wind Variable Wind from East
Gusts 14.0 mph

Today
High -- | Low -- °F
--% Chance of Precip.
Yesterday
High -- | Low -- °F
Precip. -- in
5:53 AM 9:13 PM
Full, 99% visible
Pressure 30.15 in
Visibility 10.0 miles
Clouds Clear
Dew Point 39 °F
Humidity 35%
Rainfall in
Snow Depth Not available.
UV 10 out of 12
Pollen 8.00 out of 12
Air Quality Not available.
Flu Activity Sporadic
METAR KOSC 031613Z AUTO 10010KT 10SM CLR 17/07 A3015 RMK AO2 T01760079

More Conditions Fewer Conditions

Pressure 30.15 in
Visibility 10.0 miles
Clouds Clear
Dew Point 39 °F
Humidity 35%
Rainfall in
Snow Depth Not available.
UV 10 out of 12
Pollen 8.00 out of 12
Air Quality Not available.
Flu Activity Sporadic
METAR KOSC 031613Z AUTO 10010KT 10SM CLR 17/07 A3015 RMK AO2 T01760079

More Conditions Fewer Conditions

Nowcast | as of 12:00 PM EDT on June 3, 2015

At 1 PM...clear. Temperature 65. Southeast winds 8 mph. At 3 PM...clear. Temperature 68. Southeast winds 8 mph. At 5 PM...mostly clear. Temperature 68. East winds 8 mph. At 7 PM...mostly clear. Temperature 64. Southeast winds 7 mph.

×

10-Day Weather Forecast

×

Almanac

Astronomy

Jun. 03, 2015 Rise Set
Actual Time
Civil Twilight
Nautical Twilight
Astronomical Twilight
Moon
Length of Visible Light
Length of Day
Tomorrow will be .
, % of the Moon is Illuminated

Today's Extremes

State Highs State Lows

Community

WunderPhotos

Upload Photos

1,826,254 photos uploaded!

WunderBlogs® & News

Nearby

Air Quality

  Air Quality AQ Index Pollutant
Not available.

Snow Depth

Station Depth Elevation

Earthquake Activity

City Distance Mag. Time & Date
Minimum magnitude displayed is 2.5.

Coastal Water Temperatures

Place Temperature

Stations

Nearby Weather Stations

Station Location Temp. Windchill Dew Point Humidity Wind Precip. Elev Updated Type